Time;durP1;ratioP1;P1;durP2;ratioP2;P2;SDS_P1;SDS_P2;PMS_P1;PMS_P2;Temp;Humidity;BMP_temperature;BMP_pressure;BME280_temperature;BME280_humidity;BME280_pressure;Samples;Min_cycle;Max_cycle;Signal;HPM_P1;HPM_P2
2022/02/08 00:01:01;;;;;;;18.80;4.00;;;6.80;99.90;;;;;;4959247;28;20042;-82
2022/02/08 00:03:28;;;;;;;25.30;3.90;;;6.80;99.90;;;;;;4944318;28;20038;-87
2022/02/08 00:08:41;;;;;;;19.30;3.78;;;6.80;99.90;;;;;;4947468;28;20054;-86
2022/02/08 00:11:08;;;;;;;14.77;3.08;;;6.80;99.90;;;;;;4977125;28;20049;-87
2022/02/08 00:13:34;;;;;;;13.60;3.08;;;6.90;99.90;;;;;;4939262;28;20038;-87
2022/02/08 00:16:01;;;;;;;20.33;3.67;;;6.90;99.90;;;;;;4973161;28;20038;-86
2022/02/08 00:18:27;;;;;;;18.50;4.70;;;6.90;99.90;;;;;;4973155;28;20037;-87
2022/02/08 00:20:54;;;;;;;14.82;3.33;;;6.90;99.90;;;;;;4958492;28;20029;-86
2022/02/08 00:23:20;;;;;;;18.40;4.60;;;6.90;99.90;;;;;;4977398;28;20039;-86
2022/02/08 00:25:49;;;;;;;20.77;4.03;;;6.90;99.90;;;;;;4946427;28;20473;-85
2022/02/08 00:28:17;;;;;;;23.60;4.65;;;6.90;99.90;;;;;;4960437;28;20038;-84
2022/02/08 00:30:43;;;;;;;20.17;4.90;;;6.80;99.90;;;;;;4929423;28;20030;-85
2022/02/08 00:33:10;;;;;;;18.55;4.82;;;6.80;99.90;;;;;;4977117;28;20114;-85
2022/02/08 00:35:37;;;;;;;19.15;5.22;;;6.80;99.90;;;;;;4960726;28;20037;-85
2022/02/08 00:38:04;;;;;;;26.08;5.03;;;6.80;99.90;;;;;;4946262;28;20049;-85
2022/02/08 00:40:30;;;;;;;14.68;4.97;;;6.80;99.90;;;;;;4995326;28;20043;-86
2022/02/08 00:42:58;;;;;;;23.92;6.93;;;6.80;99.90;;;;;;4997367;28;20026;-85
2022/02/08 00:45:49;;;;;;;19.23;5.55;;;6.80;99.90;;;;;;4971984;28;20038;-86
2022/02/08 00:48:25;;;;;;;23.00;5.70;;;6.80;99.90;;;;;;4962269;28;20117;-85
2022/02/08 00:50:52;;;;;;;18.83;5.57;;;6.70;99.90;;;;;;4960270;28;20489;-85
2022/02/08 00:53:21;;;;;;;17.65;4.93;;;6.70;99.90;;;;;;4957570;28;20045;-85
2022/02/08 00:55:47;;;;;;;24.48;6.60;;;6.80;99.90;;;;;;4960065;28;20030;-84
2022/02/08 00:58:14;;;;;;;18.60;6.43;;;6.80;99.90;;;;;;4962165;28;20053;-85
2022/02/08 01:00:41;;;;;;;18.83;5.75;;;6.80;99.90;;;;;;4945672;28;20026;-84
2022/02/08 01:03:09;;;;;;;21.60;6.40;;;6.80;99.90;;;;;;4944679;28;20457;-85
2022/02/08 01:05:41;;;;;;;17.05;5.80;;;6.80;99.90;;;;;;4958788;28;20041;-84
2022/02/08 01:08:08;;;;;;;23.80;5.30;;;6.80;99.90;;;;;;4961728;28;20041;-84
2022/02/08 01:10:38;;;;;;;30.17;6.38;;;6.80;99.90;;;;;;4960326;28;20049;-84
2022/02/08 01:13:07;;;;;;;26.38;7.75;;;6.80;99.90;;;;;;4960239;28;20033;-85
2022/02/08 01:15:34;;;;;;;24.73;6.70;;;6.80;99.90;;;;;;4942918;28;20031;-84
2022/02/08 01:18:01;;;;;;;27.15;7.20;;;6.80;99.90;;;;;;4976316;28;20046;-84
2022/02/08 01:20:34;;;;;;;24.52;8.40;;;6.80;99.90;;;;;;4946352;28;20046;-86
2022/02/08 01:23:08;;;;;;;18.17;7.78;;;6.80;99.90;;;;;;4961885;28;20034;-85
2022/02/08 01:25:45;;;;;;;17.33;6.18;;;6.80;99.90;;;;;;4943910;28;20033;-85
2022/02/08 01:28:28;;;;;;;23.15;7.53;;;6.80;99.90;;;;;;4976481;28;20066;-84
2022/02/08 01:38:57;;;;;;;19.55;8.25;;;6.80;99.90;;;;;;4991111;28;20030;-87
2022/02/08 01:44:30;;;;;;;20.50;9.05;;;6.90;99.90;;;;;;4968348;28;20033;-87
2022/02/08 01:47:16;;;;;;;25.05;9.73;;;6.90;99.90;;;;;;4940919;28;20034;-84
2022/02/08 01:50:29;;;;;;;18.30;8.80;;;6.90;99.90;;;;;;4960408;28;20037;-86
2022/02/08 01:52:30;;;;;;;18.83;10.48;;;6.90;99.90;;;;;;4952140;28;20034;-86
2022/02/08 01:54:58;;;;;;;24.70;10.70;;;6.90;99.90;;;;;;4969740;28;20050;-84
2022/02/08 01:57:27;;;;;;;18.63;10.75;;;6.90;99.90;;;;;;4973518;28;20033;-85
2022/02/08 01:59:54;;;;;;;24.55;10.85;;;7.00;99.90;;;;;;4957967;28;20034;-84
2022/02/08 02:02:21;;;;;;;17.58;9.27;;;6.90;99.90;;;;;;4961892;28;20021;-84
2022/02/08 02:04:48;;;;;;;25.42;12.40;;;7.00;99.90;;;;;;4955186;28;20025;-84
2022/02/08 02:07:16;;;;;;;30.77;16.33;;;7.00;99.90;;;;;;4956692;28;20038;-84
2022/02/08 02:09:46;;;;;;;25.95;14.50;;;7.00;99.90;;;;;;4958531;28;20042;-84
2022/02/08 02:12:19;;;;;;;22.42;12.52;;;7.10;99.90;;;;;;4959782;28;20029;-85
2022/02/08 02:14:46;;;;;;;36.42;18.70;;;7.00;99.90;;;;;;4954308;28;20048;-84
2022/02/08 02:17:17;;;;;;;22.88;14.23;;;7.10;99.90;;;;;;4929090;28;20022;-85
2022/02/08 02:19:46;;;;;;;37.67;19.85;;;7.10;99.90;;;;;;4959664;28;20045;-83
2022/02/08 02:22:14;;;;;;;38.55;21.77;;;7.10;99.90;;;;;;4943866;28;20158;-84
2022/02/08 02:24:43;;;;;;;25.90;16.67;;;7.20;99.90;;;;;;4956552;28;20048;-83
2022/02/08 02:27:11;;;;;;;26.20;16.80;;;7.20;99.90;;;;;;4942251;28;20047;-84
2022/02/08 02:29:40;;;;;;;29.98;20.20;;;7.20;99.90;;;;;;4959780;28;20045;-85
2022/02/08 02:32:09;;;;;;;36.15;20.52;;;7.20;99.90;;;;;;4946873;28;20026;-84
2022/02/08 02:34:36;;;;;;;39.97;26.00;;;7.20;99.90;;;;;;4986080;28;20489;-84
2022/02/08 02:37:05;;;;;;;35.72;21.83;;;7.20;99.90;;;;;;4940146;28;20042;-84
2022/02/08 02:39:32;;;;;;;33.78;21.45;;;7.30;99.90;;;;;;4978190;28;20033;-84
2022/02/08 02:42:10;;;;;;;33.80;20.02;;;7.30;99.90;;;;;;4989454;28;20489;-84
2022/02/08 02:44:37;;;;;;;38.20;24.23;;;7.30;99.90;;;;;;4953573;28;20031;-84
2022/02/08 02:47:04;;;;;;;35.10;21.33;;;7.30;99.90;;;;;;4958295;28;20038;-83
2022/02/08 02:49:30;;;;;;;32.45;20.08;;;7.40;99.90;;;;;;4944597;28;20075;-84
2022/02/08 02:52:06;;;;;;;;;;;7.40;99.90;;;;;;4927159;28;20026;-84
2022/02/08 02:54:35;;;;;;;50.13;27.30;;;7.40;99.90;;;;;;4970068;28;20288;-85
2022/02/08 02:57:03;;;;;;;40.22;26.83;;;7.40;99.90;;;;;;4958689;28;20034;-84
2022/02/08 02:59:34;;;;;;;47.10;27.05;;;7.40;99.90;;;;;;4957008;28;20042;-85
2022/02/08 03:18:34;;;;;;;47.75;27.95;;;7.60;99.90;;;;;;4961271;28;21088;-81
2022/02/08 03:21:07;;;;;;;52.95;29.77;;;7.60;99.90;;;;;;4962116;28;20508;-81
2022/02/08 03:23:36;;;;;;;42.53;28.90;;;7.70;99.90;;;;;;4945052;28;20034;-79
2022/02/08 03:26:05;;;;;;;45.50;30.73;;;7.70;99.90;;;;;;4970552;28;20038;-84
2022/02/08 03:28:37;;;;;;;52.90;34.33;;;7.70;99.90;;;;;;4956309;28;20037;-88
2022/02/08 03:31:06;;;;;;;54.45;33.13;;;7.70;99.90;;;;;;4963089;28;20014;-88
2022/02/08 03:33:36;;;;;;;57.05;33.63;;;7.70;99.90;;;;;;4941746;28;20030;-90
2022/02/08 03:36:09;;;;;;;55.45;33.58;;;7.80;99.90;;;;;;4957953;28;20034;-86
2022/02/08 03:38:44;;;;;;;53.38;31.00;;;7.80;99.90;;;;;;4975587;28;20030;-87
2022/02/08 03:41:16;;;;;;;49.97;31.15;;;7.80;99.90;;;;;;4962413;28;20041;-86
2022/02/08 03:43:47;;;;;;;58.33;34.10;;;7.80;99.90;;;;;;4973143;28;20785;-86
2022/02/08 03:46:36;;;;;;;62.92;35.40;;;7.80;99.90;;;;;;4943501;28;20042;-84
2022/02/08 03:49:05;;;;;;;55.47;34.10;;;7.90;99.90;;;;;;4973419;28;20064;-76
2022/02/08 03:51:51;;;;;;;49.92;31.88;;;7.90;99.90;;;;;;4944492;28;20041;-88
2022/02/08 03:54:21;;;;;;;62.25;34.47;;;7.90;99.90;;;;;;4944380;28;20033;-88
2022/02/08 03:56:50;;;;;;;48.85;31.42;;;7.90;99.90;;;;;;4955127;28;20034;-88
2022/02/08 03:59:53;;;;;;;69.50;35.00;;;7.90;99.90;;;;;;4961507;28;20746;-90
2022/02/08 04:02:42;;;;;;;47.70;31.17;;;7.90;99.90;;;;;;4976398;28;20038;-84
2022/02/08 04:05:23;;;;;;;50.67;32.20;;;8.00;99.90;;;;;;4953035;28;20027;-81
2022/02/08 04:08:13;;;;;;;49.90;29.92;;;8.00;99.90;;;;;;4963412;28;20441;-75
2022/02/08 04:10:46;;;;;;;43.75;27.52;;;8.00;99.90;;;;;;4992797;28;20440;-83
2022/02/08 04:13:24;;;;;;;46.05;28.23;;;8.00;99.90;;;;;;4977661;28;20462;-89
2022/02/08 04:35:39;;;;;;;46.65;26.35;;;8.20;99.90;;;;;;4995758;28;20026;-88
2022/02/08 04:50:52;;;;;;;34.38;22.85;;;8.30;99.90;;;;;;4960272;28;20038;-86
2022/02/08 04:53:30;;;;;;;48.05;26.30;;;8.40;99.90;;;;;;4978177;28;20081;-87
2022/02/08 04:56:10;;;;;;;41.33;25.42;;;8.30;99.90;;;;;;4961175;28;20057;-85
2022/02/08 04:58:45;;;;;;;37.55;24.08;;;8.40;99.90;;;;;;4977761;28;20038;-85
2022/02/08 05:45:27;;;;;;;39.38;22.25;;;8.50;99.90;;;;;;4971425;28;20497;-84
2022/02/08 05:47:58;;;;;;;42.75;23.88;;;8.50;99.90;;;;;;4961924;28;20022;-84
2022/02/08 05:50:44;;;;;;;39.20;22.20;;;8.50;99.90;;;;;;4976199;28;20037;-84
2022/02/08 05:55:58;;;;;;;37.10;21.02;;;8.40;99.90;;;;;;4972854;28;20026;-84
2022/02/08 05:58:26;;;;;;;36.20;20.40;;;8.50;99.90;;;;;;4963413;28;20030;-83
2022/02/08 06:00:52;;;;;;;30.67;18.10;;;8.50;99.90;;;;;;4960793;28;20041;-83
2022/02/08 06:03:41;;;;;;;33.78;19.98;;;8.50;99.90;;;;;;4962800;28;21316;-83
2022/02/08 06:06:08;;;;;;;37.55;19.52;;;8.50;99.90;;;;;;4990099;28;20095;-84
2022/02/08 06:08:39;;;;;;;32.50;18.98;;;8.40;99.90;;;;;;4978478;28;20393;-83
2022/02/08 06:11:18;;;;;;;32.03;18.70;;;8.40;99.90;;;;;;4977555;28;20027;-83
2022/02/08 06:13:51;;;;;;;28.77;18.13;;;8.40;99.90;;;;;;4969199;28;20030;-83
2022/02/08 06:16:21;;;;;;;28.67;17.98;;;8.40;99.90;;;;;;4943791;28;20033;-83
2022/02/08 06:18:50;;;;;;;31.50;17.75;;;8.30;99.90;;;;;;4975551;28;20034;-82
2022/02/08 06:21:22;;;;;;;33.78;17.50;;;8.30;99.90;;;;;;4972393;28;20398;-83
2022/02/08 06:23:48;;;;;;;31.02;17.92;;;8.30;99.90;;;;;;4957539;28;20038;-83
2022/02/08 06:26:16;;;;;;;26.88;16.50;;;8.30;99.90;;;;;;4973271;28;20037;-83
2022/02/08 06:28:52;;;;;;;25.65;16.13;;;8.30;99.90;;;;;;4959513;28;20331;-83
2022/02/08 06:31:19;;;;;;;24.55;15.00;;;8.30;99.90;;;;;;4962299;28;20030;-84
2022/02/08 06:33:45;;;;;;;21.70;14.85;;;8.20;99.90;;;;;;4941036;28;20050;-83
2022/02/08 06:36:12;;;;;;;29.27;16.33;;;8.20;99.90;;;;;;4974205;28;20553;-83
2022/02/08 06:38:38;;;;;;;28.52;15.70;;;8.20;99.90;;;;;;4946312;28;20025;-84
2022/02/08 06:41:07;;;;;;;24.98;13.77;;;8.20;99.90;;;;;;4944879;28;20038;-85
2022/02/08 06:43:33;;;;;;;20.90;11.93;;;8.10;99.90;;;;;;4956936;28;20038;-83
2022/02/08 06:46:00;;;;;;;25.63;14.98;;;8.10;99.90;;;;;;4944296;28;20378;-83
2022/02/08 06:48:27;;;;;;;38.33;17.63;;;8.10;99.90;;;;;;4944618;28;20394;-83
2022/02/08 06:50:54;;;;;;;30.13;15.25;;;8.00;99.90;;;;;;4956036;28;20038;-85
2022/02/08 06:53:20;;;;;;;23.88;14.18;;;8.10;99.90;;;;;;4956220;28;20039;-83
2022/02/08 06:55:47;;;;;;;23.35;13.25;;;8.00;99.90;;;;;;4960570;28;20385;-84
2022/02/08 06:58:15;;;;;;;27.50;13.75;;;8.00;99.90;;;;;;4947117;28;20049;-83
2022/02/08 07:00:43;;;;;;;24.48;12.13;;;8.00;99.90;;;;;;4961894;28;20041;-84
2022/02/08 07:03:14;;;;;;;21.63;11.18;;;8.00;99.90;;;;;;4961436;28;20035;-86
2022/02/08 07:05:41;;;;;;;25.98;12.85;;;8.00;99.90;;;;;;4976601;28;20516;-84
2022/02/08 07:08:08;;;;;;;22.90;13.13;;;8.00;99.90;;;;;;4979146;28;20030;-85
2022/02/08 07:10:36;;;;;;;19.90;10.80;;;7.90;99.90;;;;;;4963181;28;20042;-84
2022/02/08 07:13:06;;;;;;;17.92;9.65;;;7.90;99.90;;;;;;4963845;28;20478;-85
2022/02/08 07:15:33;;;;;;;21.77;11.38;;;7.90;99.90;;;;;;4961593;28;20501;-84
2022/02/08 07:18:00;;;;;;;25.95;11.43;;;7.90;99.90;;;;;;4961768;28;20041;-84
2022/02/08 07:20:27;;;;;;;22.33;10.85;;;7.90;99.90;;;;;;4966145;28;20043;-84
2022/02/08 07:22:54;;;;;;;24.48;10.82;;;7.90;99.90;;;;;;4961640;28;20042;-84
2022/02/08 07:25:20;;;;;;;21.50;10.88;;;7.90;99.90;;;;;;4959553;28;20465;-84
2022/02/08 07:27:47;;;;;;;18.30;10.50;;;8.00;99.90;;;;;;4941470;28;20041;-84
2022/02/08 07:30:19;;;;;;;22.02;12.02;;;8.00;99.90;;;;;;4949702;28;20050;-84
2022/02/08 07:33:11;;;;;;;21.10;10.40;;;8.10;99.90;;;;;;4972644;28;20034;-83
2022/02/08 07:35:58;;;;;;;26.52;11.60;;;8.20;99.90;;;;;;4957949;28;20512;-83
2022/02/08 07:38:31;;;;;;;25.92;10.48;;;8.20;99.90;;;;;;4983087;28;20047;-84
2022/02/08 07:43:27;;;;;;;19.67;10.23;;;8.40;99.90;;;;;;4941560;28;20043;-84
2022/02/08 07:46:07;;;;;;;19.77;8.15;;;8.40;99.90;;;;;;4942975;28;20478;-85
2022/02/08 07:48:34;;;;;;;14.85;7.72;;;8.40;99.90;;;;;;4969103;28;20045;-84
2022/02/08 07:51:00;;;;;;;17.30;7.93;;;8.50;99.90;;;;;;4971320;28;20114;-84
2022/02/08 07:53:28;;;;;;;20.50;7.25;;;8.50;99.90;;;;;;4940108;28;20525;-84
2022/02/08 07:55:56;;;;;;;15.52;7.32;;;8.50;99.90;;;;;;4961369;28;20042;-84
2022/02/08 07:58:29;;;;;;;18.10;5.88;;;8.50;99.90;;;;;;4974561;28;20018;-84
2022/02/08 08:00:55;;;;;;;14.85;5.15;;;8.60;99.90;;;;;;4945802;28;20034;-83
2022/02/08 08:03:22;;;;;;;16.13;5.30;;;8.60;99.90;;;;;;4958434;28;20037;-83
2022/02/08 08:05:49;;;;;;;16.95;6.05;;;8.60;99.90;;;;;;4928356;28;20593;-83
2022/02/08 08:08:15;;;;;;;13.95;4.32;;;8.60;99.90;;;;;;4976382;28;20035;-84
2022/02/08 08:10:46;;;;;;;19.77;4.95;;;8.70;99.90;;;;;;4993752;28;20037;-83
2022/02/08 08:13:16;;;;;;;16.05;4.20;;;8.70;99.90;;;;;;4932303;28;20421;-83
2022/02/08 08:15:51;;;;;;;12.23;3.30;;;8.70;99.90;;;;;;4943279;28;20141;-83
2022/02/08 08:18:26;;;;;;;21.48;4.30;;;8.70;99.90;;;;;;4961874;28;20037;-84
2022/02/08 08:20:53;;;;;;;16.50;3.60;;;8.80;99.90;;;;;;4974303;28;20390;-83
2022/02/08 08:23:19;;;;;;;19.52;3.20;;;8.80;99.90;;;;;;4987868;28;20030;-82
2022/02/08 08:25:49;;;;;;;17.55;3.38;;;8.90;99.90;;;;;;4952792;28;20401;-82
2022/02/08 08:28:16;;;;;;;16.85;4.88;;;8.90;99.90;;;;;;4973583;28;20030;-84
2022/02/08 08:30:44;;;;;;;16.05;3.33;;;8.90;99.90;;;;;;4941881;28;20042;-81
2022/02/08 08:33:11;;;;;;;12.32;2.50;;;9.00;99.90;;;;;;4986436;28;20022;-80
2022/02/08 08:35:40;;;;;;;16.70;2.15;;;9.00;99.90;;;;;;4958596;28;20046;-80
2022/02/08 08:38:14;;;;;;;11.60;2.10;;;9.00;99.90;;;;;;4990669;28;20038;-81
2022/02/08 08:40:55;;;;;;;7.57;1.55;;;9.10;99.90;;;;;;4958769;28;20529;-80
2022/02/08 08:43:44;;;;;;;12.65;1.80;;;9.20;99.90;;;;;;4987064;28;20041;-81
2022/02/08 08:51:47;;;;;;;10.50;1.85;;;9.30;99.90;;;;;;4985347;28;20046;-81
2022/02/08 08:54:13;;;;;;;15.27;1.58;;;9.40;99.90;;;;;;4952840;28;20057;-81
2022/02/08 08:56:51;;;;;;;14.00;2.25;;;9.50;99.90;;;;;;4969754;28;20046;-82
2022/02/08 08:59:22;;;;;;;13.23;1.83;;;9.50;99.90;;;;;;4973602;28;20026;-80
2022/02/08 09:01:58;;;;;;;12.05;1.70;;;9.60;99.90;;;;;;4962808;28;20035;-82
2022/02/08 09:04:33;;;;;;;14.15;2.10;;;9.60;99.90;;;;;;4956984;28;20042;-83
2022/02/08 09:07:16;;;;;;;13.52;2.33;;;9.60;99.90;;;;;;4959574;28;20042;-83
2022/02/08 09:09:47;;;;;;;11.80;1.95;;;9.70;99.90;;;;;;4943469;28;20049;-82
2022/02/08 09:12:36;;;;;;;11.93;1.60;;;9.80;99.90;;;;;;4972293;28;20042;-81
2022/02/08 09:21:17;;;;;;;10.75;1.00;;;10.10;99.90;;;;;;4974087;28;20034;-79
2022/02/08 09:23:47;;;;;;;7.25;1.02;;;10.20;99.90;;;;;;4978003;28;20053;-79
2022/02/08 09:28:58;;;;;;;10.35;1.17;;;10.30;99.90;;;;;;4992007;28;20031;-79
2022/02/08 09:31:25;;;;;;;8.98;1.60;;;10.30;99.90;;;;;;4962367;28;20017;-78
2022/02/08 09:33:52;;;;;;;9.35;1.35;;;10.40;99.90;;;;;;4971641;28;20038;-78
2022/02/08 09:36:25;;;;;;;9.25;1.30;;;10.40;99.90;;;;;;4969781;28;20029;-79
2022/02/08 09:38:53;;;;;;;10.65;0.90;;;10.40;99.90;;;;;;4956108;28;20470;-79
2022/02/08 09:41:22;;;;;;;7.78;0.93;;;10.50;99.90;;;;;;4956586;28;20049;-81
2022/02/08 09:43:50;;;;;;;10.68;1.52;;;10.60;99.90;;;;;;4972452;28;20030;-81
2022/02/08 09:46:18;;;;;;;12.90;1.92;;;10.80;99.90;;;;;;4956673;28;20037;-79
2022/02/08 09:49:03;;;;;;;7.95;1.05;;;10.90;99.90;;;;;;4941412;28;20018;-79
2022/02/08 09:51:30;;;;;;;7.25;1.15;;;11.10;99.90;;;;;;4984987;28;20027;-80
2022/02/08 09:54:00;;;;;;;8.93;1.10;;;11.30;99.90;;;;;;4974025;28;20386;-79
2022/02/08 09:56:27;;;;;;;7.45;0.80;;;11.40;99.90;;;;;;4987122;28;20047;-80
2022/02/08 09:58:55;;;;;;;4.93;0.52;;;11.50;99.90;;;;;;4957342;28;20046;-80
2022/02/08 10:01:24;;;;;;;6.80;0.60;;;11.50;99.90;;;;;;4983848;28;20030;-80
2022/02/08 10:03:52;;;;;;;8.85;1.23;;;11.60;99.90;;;;;;4953484;28;20049;-80
2022/02/08 10:06:19;;;;;;;9.00;0.82;;;11.60;99.90;;;;;;4956241;28;20033;-81
2022/02/08 10:09:06;;;;;;;8.15;0.77;;;11.70;99.90;;;;;;4960582;28;20027;-80
2022/02/08 10:11:43;;;;;;;9.32;0.70;;;11.70;99.90;;;;;;4977351;28;20042;-80
2022/02/08 10:22:32;;;;;;;11.43;1.20;;;11.70;99.90;;;;;;4993255;28;20123;-80
2022/02/08 10:25:05;;;;;;;7.97;0.80;;;11.70;99.90;;;;;;4977051;28;20042;-80
2022/02/08 10:27:39;;;;;;;8.43;0.80;;;11.60;99.90;;;;;;4998349;28;20023;-82
2022/02/08 10:39:06;;;;;;;8.30;0.70;;;11.50;99.90;;;;;;4989991;28;20050;-77
2022/02/08 10:41:35;;;;;;;11.23;1.27;;;11.40;99.90;;;;;;5002093;28;20488;-78
2022/02/08 10:44:11;;;;;;;10.27;1.25;;;11.30;99.90;;;;;;4983348;28;20374;-77
2022/02/08 10:46:40;;;;;;;7.07;0.73;;;11.30;99.90;;;;;;4967351;28;23018;-79
2022/02/08 10:49:15;;;;;;;10.98;0.85;;;11.30;99.90;;;;;;4977509;28;20034;-77
2022/02/08 10:51:51;;;;;;;6.22;0.63;;;11.30;99.90;;;;;;5004390;28;20050;-78
2022/02/08 10:54:35;;;;;;;6.82;0.80;;;11.30;99.90;;;;;;4972999;28;20030;-78
2022/02/08 10:57:09;;;;;;;9.30;0.95;;;11.30;99.90;;;;;;4989136;28;20054;-79
2022/02/08 10:59:42;;;;;;;10.38;0.60;;;11.40;99.90;;;;;;4980251;28;20034;-79
2022/02/08 11:02:27;;;;;;;9.77;1.10;;;11.40;99.90;;;;;;4993867;28;20035;-79
2022/02/08 11:07:45;;;;;;;7.25;0.63;;;11.40;99.90;;;;;;4976157;28;20030;-79
2022/02/08 11:12:53;;;;;;;6.07;0.75;;;11.50;99.90;;;;;;4972004;28;20096;-80
2022/02/08 11:15:43;;;;;;;7.68;0.60;;;11.50;99.90;;;;;;4972217;28;20014;-79
2022/02/08 11:21:03;;;;;;;10.35;1.10;;;11.60;99.90;;;;;;4980853;28;20041;-79
2022/02/08 11:23:47;;;;;;;5.30;0.75;;;11.60;99.90;;;;;;4974730;28;21088;-80
2022/02/08 11:26:32;;;;;;;8.23;0.70;;;11.60;99.90;;;;;;4991256;28;20022;-80
2022/02/08 11:29:38;;;;;;;6.55;0.82;;;11.60;99.90;;;;;;4991058;28;20049;-79
2022/02/08 11:32:18;;;;;;;8.75;0.80;;;11.70;99.90;;;;;;4939750;28;20046;-82
2022/02/08 11:43:52;;;;;;;5.93;0.98;;;12.00;99.90;;;;;;4977413;28;20473;-85
2022/02/08 11:54:27;;;;;;;6.13;0.68;;;12.20;99.90;;;;;;4987355;28;20114;-79
2022/02/08 12:05:10;;;;;;;6.80;0.75;;;12.30;99.90;;;;;;4972398;28;20492;-78
2022/02/08 12:07:49;;;;;;;6.72;0.60;;;12.40;99.90;;;;;;4961414;28;20053;-79
2022/02/08 12:10:23;;;;;;;16.65;5.57;;;12.40;99.90;;;;;;4957907;28;20490;-81
2022/02/08 13:02:15;;;;;;;6.38;0.88;;;12.50;99.90;;;;;;4978708;28;20400;-78
2022/02/08 14:02:19;;;;;;;8.63;0.80;;;11.90;99.90;;;;;;4960147;28;20401;-80
2022/02/08 14:18:13;;;;;;;6.40;0.47;;;12.00;99.90;;;;;;4971545;28;20041;-80
2022/02/08 14:36:56;;;;;;;5.97;0.50;;;12.10;99.90;;;;;;4956747;28;20037;-84
2022/02/08 14:59:56;;;;;;;6.18;0.47;;;11.90;99.90;;;;;;4969972;28;20041;-80
2022/02/08 15:09:40;;;;;;;5.00;0.73;;;11.90;99.90;;;;;;4984021;28;20026;-80
2022/02/08 15:12:13;;;;;;;4.05;0.50;;;11.90;99.90;;;;;;4974204;28;20030;-80
2022/02/08 15:14:53;;;;;;;4.15;0.50;;;11.90;99.90;;;;;;4990412;28;20022;-81
2022/02/08 15:17:20;;;;;;;7.18;0.50;;;11.90;99.90;;;;;;4990884;28;20026;-80
2022/02/08 15:19:49;;;;;;;6.57;0.80;;;11.90;99.90;;;;;;4973969;28;20033;-80
2022/02/08 15:22:17;;;;;;;4.43;0.57;;;11.90;99.90;;;;;;4992015;28;20030;-78
2022/02/08 15:24:45;;;;;;;1.33;0.30;;;11.90;99.90;;;;;;4975211;28;20058;-79
2022/02/08 15:27:13;;;;;;;3.92;0.40;;;11.80;99.90;;;;;;4975040;28;20040;-81
2022/02/08 15:29:40;;;;;;;4.22;0.70;;;11.80;99.90;;;;;;4978226;28;20057;-81
2022/02/08 15:32:13;;;;;;;6.05;0.70;;;11.80;99.90;;;;;;4951134;28;20034;-80
2022/02/08 15:34:42;;;;;;;6.90;0.77;;;11.70;99.90;;;;;;4977089;28;20042;-79
2022/02/08 15:37:10;;;;;;;5.22;0.60;;;11.70;99.90;;;;;;4976809;28;20381;-79
2022/02/08 15:39:37;;;;;;;5.25;0.40;;;11.70;99.90;;;;;;4962795;28;20018;-81
2022/02/08 15:42:04;;;;;;;5.40;0.52;;;11.60;99.90;;;;;;4994682;28;20050;-83
2022/02/08 15:44:32;;;;;;;3.65;0.50;;;11.60;99.90;;;;;;4962550;28;20022;-80
2022/02/08 15:47:04;;;;;;;3.22;0.60;;;11.60;99.90;;;;;;4994261;28;20088;-79
2022/02/08 15:49:33;;;;;;;3.78;0.40;;;11.60;99.90;;;;;;4960459;28;20054;-81
2022/02/08 15:52:15;;;;;;;7.90;0.57;;;11.50;99.90;;;;;;4974616;28;20500;-81
2022/02/08 15:54:46;;;;;;;7.22;0.50;;;11.50;99.90;;;;;;4976120;28;20031;-81
2022/02/08 16:08:15;;;;;;;3.97;0.50;;;11.30;99.90;;;;;;4964015;28;20498;-80
2022/02/08 16:10:56;;;;;;;2.65;0.40;;;11.20;99.90;;;;;;4978042;28;20045;-81
2022/02/08 16:14:13;;;;;;;1.85;0.40;;;11.20;99.90;;;;;;4993133;28;20038;-82
2022/02/08 16:16:49;;;;;;;7.22;0.35;;;11.20;99.90;;;;;;4950081;28;20035;-82
2022/02/08 16:57:00;;;;;;;4.43;0.80;;;10.90;99.90;;;;;;4989729;28;20045;-81
2022/02/08 16:59:34;;;;;;;4.28;0.50;;;10.90;99.90;;;;;;4961624;28;20038;-82
2022/02/08 17:02:01;;;;;;;5.03;0.85;;;10.80;99.90;;;;;;4959762;28;20042;-82
2022/02/08 17:04:29;;;;;;;6.32;0.85;;;10.80;99.90;;;;;;4957037;28;20049;-81
2022/02/08 17:06:57;;;;;;;5.18;0.82;;;10.80;99.90;;;;;;4975668;28;20042;-82
2022/02/08 17:45:38;;;;;;;6.93;0.65;;;10.60;99.90;;;;;;4958147;28;20046;-79
2022/02/08 17:48:00;;;;;;;3.05;0.50;;;10.60;99.90;;;;;;4961832;28;20042;-75
2022/02/08 17:50:27;;;;;;;4.07;0.50;;;10.70;99.90;;;;;;4971378;28;20030;-75
2022/02/08 17:52:54;;;;;;;4.40;1.02;;;10.70;99.90;;;;;;4974488;28;20026;-81
2022/02/08 17:55:22;;;;;;;9.32;1.83;;;10.60;99.90;;;;;;4979103;28;20030;-78
2022/02/08 17:57:52;;;;;;;5.00;1.20;;;10.60;99.90;;;;;;4986888;28;20061;-78
2022/02/08 18:00:19;;;;;;;8.93;1.48;;;10.60;99.90;;;;;;4974508;28;20038;-78
2022/02/08 18:02:48;;;;;;;6.22;0.90;;;10.60;99.90;;;;;;4939455;28;20035;-80
2022/02/08 18:05:15;;;;;;;20.58;11.77;;;10.60;99.90;;;;;;4970718;28;20029;-79
2022/02/08 18:07:43;;;;;;;5.47;1.00;;;10.60;99.90;;;;;;4970945;28;20053;-77
2022/02/08 18:10:11;;;;;;;6.90;1.17;;;10.60;99.90;;;;;;4970448;28;20038;-78
2022/02/08 18:12:40;;;;;;;6.55;0.80;;;10.50;99.90;;;;;;4969973;28;21203;-81
2022/02/08 18:15:11;;;;;;;3.20;0.45;;;10.50;99.90;;;;;;4951040;28;20030;-82
2022/02/08 18:17:44;;;;;;;3.08;0.50;;;10.50;99.90;;;;;;4971023;28;20026;-79
2022/02/08 18:28:15;;;;;;;3.40;0.68;;;10.30;99.90;;;;;;4958601;28;20045;-86
2022/02/08 18:56:10;;;;;;;8.27;1.52;;;10.00;99.90;;;;;;4991188;28;20026;-86
2022/02/08 19:07:15;;;;;;;5.95;1.10;;;9.90;99.90;;;;;;4962136;28;20053;-81
2022/02/08 19:12:25;;;;;;;8.38;2.17;;;9.90;99.90;;;;;;4992619;28;20042;-76
2022/02/08 19:22:42;;;;;;;4.93;1.88;;;9.80;99.90;;;;;;4988758;28;20465;-81
2022/02/08 19:25:28;;;;;;;4.07;1.70;;;9.80;99.90;;;;;;4972922;28;20398;-84
2022/02/08 19:27:57;;;;;;;7.68;1.67;;;9.80;99.90;;;;;;4974771;28;20058;-82
2022/02/08 19:30:24;;;;;;;7.78;1.92;;;9.80;99.90;;;;;;4988213;28;20027;-81
2022/02/08 19:32:51;;;;;;;9.43;1.77;;;9.70;99.90;;;;;;4961898;28;20026;-84
2022/02/08 19:35:20;;;;;;;4.20;1.73;;;9.70;99.90;;;;;;4969436;28;20041;-84
2022/02/08 19:37:48;;;;;;;6.10;2.40;;;9.60;99.90;;;;;;4958535;28;20037;-84
2022/02/08 19:40:18;;;;;;;8.38;3.45;;;9.60;99.90;;;;;;4957686;28;20485;-85
2022/02/08 19:42:52;;;;;;;9.05;2.67;;;9.60;99.90;;;;;;4979154;28;20509;-84
2022/02/08 19:45:25;;;;;;;7.82;2.88;;;9.60;99.90;;;;;;4946002;28;20038;-80
2022/02/08 19:47:51;;;;;;;7.68;2.80;;;9.60;99.90;;;;;;4975405;28;20042;-83
2022/02/08 19:50:18;;;;;;;8.57;2.80;;;9.60;99.90;;;;;;4959659;28;20041;-80
2022/02/08 19:52:45;;;;;;;7.30;3.17;;;9.70;99.90;;;;;;4960120;28;20038;-81
2022/02/08 19:58:01;;;;;;;6.80;2.33;;;9.70;99.90;;;;;;4972436;28;20047;-82
2022/02/08 20:00:32;;;;;;;6.85;2.85;;;9.80;99.90;;;;;;4926583;28;20043;-83
2022/02/08 20:03:01;;;;;;;7.95;3.28;;;9.80;99.90;;;;;;4959445;28;20049;-80
2022/02/08 20:05:31;;;;;;;5.50;3.22;;;9.80;99.90;;;;;;4957675;28;20019;-77
2022/02/08 20:07:59;;;;;;;7.40;2.95;;;9.80;99.90;;;;;;4959816;28;20049;-80
2022/02/08 20:10:26;;;;;;;5.57;2.88;;;9.80;99.90;;;;;;4973265;28;20026;-79
2022/02/08 20:12:55;;;;;;;7.07;2.97;;;9.90;99.90;;;;;;4943137;28;20034;-84
2022/02/08 20:15:22;;;;;;;8.77;3.85;;;9.90;99.90;;;;;;4957983;28;20025;-78
2022/02/08 20:17:50;;;;;;;5.82;3.97;;;9.90;99.90;;;;;;4975779;28;20038;-77
2022/02/08 20:20:18;;;;;;;7.10;4.07;;;9.90;99.90;;;;;;4957223;28;20049;-79
2022/02/08 20:22:53;;;;;;;11.32;4.18;;;9.80;99.90;;;;;;4988296;28;21363;-79
2022/02/08 20:25:23;;;;;;;4.88;3.25;;;9.90;99.90;;;;;;4976789;28;20034;-83
2022/02/08 20:27:52;;;;;;;7.47;3.30;;;9.90;99.90;;;;;;4944084;28;20026;-84
2022/02/08 20:30:24;;;;;;;11.50;4.75;;;9.90;99.90;;;;;;4918843;28;20039;-79
2022/02/08 20:32:53;;;;;;;8.23;4.72;;;9.90;99.90;;;;;;4972687;28;20052;-82
2022/02/08 20:35:21;;;;;;;6.30;3.97;;;9.90;99.90;;;;;;4987803;28;20505;-83
2022/02/08 20:37:48;;;;;;;8.25;4.65;;;9.90;99.90;;;;;;4959868;28;20500;-83
2022/02/08 20:40:18;;;;;;;10.25;4.93;;;9.90;99.90;;;;;;4963141;28;20022;-79
2022/02/08 20:42:46;;;;;;;9.80;4.32;;;9.90;99.90;;;;;;4973322;28;20042;-79
2022/02/08 20:45:12;;;;;;;10.75;4.72;;;9.90;99.90;;;;;;4958660;28;20030;-80
2022/02/08 20:47:44;;;;;;;8.75;4.70;;;9.90;99.90;;;;;;4960406;28;20029;-82
2022/02/08 20:50:13;;;;;;;9.27;5.10;;;9.90;99.90;;;;;;4976082;28;20038;-84
2022/02/08 20:52:59;;;;;;;9.95;5.70;;;9.90;99.90;;;;;;4981036;28;20393;-84
2022/02/08 20:55:39;;;;;;;9.23;5.93;;;9.90;99.90;;;;;;4999408;28;20034;-85
2022/02/08 20:58:16;;;;;;;9.48;6.15;;;9.90;99.90;;;;;;4985813;28;20042;-81
2022/02/08 21:00:46;;;;;;;12.07;6.93;;;9.90;99.90;;;;;;4984772;28;20053;-84
2022/02/08 21:03:26;;;;;;;8.80;5.85;;;9.90;99.90;;;;;;4983394;28;20037;-82
2022/02/08 21:08:30;;;;;;;;;;;9.80;99.90;;;;;;4984637;28;20041;-83
2022/02/08 21:10:58;;;;;;;10.75;5.55;;;9.80;99.90;;;;;;4979492;28;20289;-81